Time;durP1;ratioP1;P1;durP2;ratioP2;P2;SDS_P1;SDS_P2;PMS_P1;PMS_P2;Temp;Humidity;BMP_temperature;BMP_pressure;BME280_temperature;BME280_humidity;BME280_pressure;Samples;Min_cycle;Max_cycle;Signal;HPM_P1;HPM_P2
2022/01/27 00:02:18;;;;;;;28.67;17.27;;;0.50;99.90;;;;;;5041407;28;20660;-73
2022/01/27 00:04:52;;;;;;;26.23;16.50;;;0.40;99.90;;;;;;5052840;28;20201;-73
2022/01/27 00:07:19;;;;;;;30.65;18.88;;;0.50;99.90;;;;;;5050405;28;20262;-73
2022/01/27 00:10:00;;;;;;;29.70;18.13;;;0.50;99.90;;;;;;5051273;28;20659;-72
2022/01/27 00:12:29;;;;;;;27.55;18.00;;;0.40;99.90;;;;;;5042606;28;20247;-74
2022/01/27 00:15:08;;;;;;;28.10;18.05;;;0.50;99.90;;;;;;5041826;28;20204;-74
2022/01/27 00:17:40;;;;;;;29.75;17.65;;;0.50;99.90;;;;;;5043901;28;20217;-73
2022/01/27 00:20:09;;;;;;;30.70;19.15;;;0.60;99.90;;;;;;5052909;28;20664;-72
2022/01/27 00:22:36;;;;;;;29.27;17.38;;;0.60;99.90;;;;;;5042121;28;20193;-72
2022/01/27 00:25:05;;;;;;;32.78;18.02;;;0.50;99.90;;;;;;5050146;28;20200;-73
2022/01/27 00:27:34;;;;;;;32.53;18.63;;;0.50;99.90;;;;;;5050647;28;20235;-73
2022/01/27 00:30:03;;;;;;;28.50;17.75;;;0.60;99.90;;;;;;5050001;28;20193;-73
2022/01/27 00:32:31;;;;;;;23.90;16.45;;;0.60;99.90;;;;;;5052073;28;20223;-73
2022/01/27 00:34:59;;;;;;;27.70;18.30;;;0.60;99.90;;;;;;5051789;28;20201;-73
2022/01/27 00:37:26;;;;;;;27.85;18.05;;;0.60;99.90;;;;;;5047874;28;20213;-73
2022/01/27 00:39:52;;;;;;;29.90;19.50;;;0.60;99.90;;;;;;5037660;28;20198;-72
2022/01/27 00:42:20;;;;;;;32.72;20.55;;;0.60;99.90;;;;;;5037277;28;20206;-73
2022/01/27 00:44:48;;;;;;;25.42;16.88;;;0.60;99.90;;;;;;5048351;28;20197;-73
2022/01/27 00:47:15;;;;;;;26.25;16.27;;;0.60;99.90;;;;;;5050778;28;20278;-73
2022/01/27 00:49:42;;;;;;;28.08;18.17;;;0.60;99.90;;;;;;5052442;28;20205;-73
2022/01/27 00:52:15;;;;;;;27.05;18.13;;;0.70;99.90;;;;;;5050349;28;20339;-73
2022/01/27 00:54:42;;;;;;;23.02;16.20;;;0.70;99.90;;;;;;5041608;28;20242;-73
2022/01/27 00:57:15;;;;;;;26.02;17.08;;;0.70;99.90;;;;;;5041349;28;20212;-73
2022/01/27 00:59:52;;;;;;;27.95;17.73;;;0.80;99.90;;;;;;5038196;28;20595;-73
2022/01/27 01:02:32;;;;;;;22.20;16.20;;;0.80;99.90;;;;;;5042190;28;20228;-73
2022/01/27 01:05:11;;;;;;;26.75;17.50;;;0.80;99.90;;;;;;5051569;28;20197;-72
2022/01/27 01:07:42;;;;;;;24.35;17.13;;;0.80;99.90;;;;;;5049563;28;20217;-73
2022/01/27 01:15:46;;;;;;;23.02;17.05;;;0.90;99.90;;;;;;5046712;28;20225;-72
2022/01/27 01:18:27;;;;;;;23.30;16.42;;;1.00;99.90;;;;;;5048157;28;20212;-73
2022/01/27 01:21:19;;;;;;;25.33;16.52;;;1.00;99.90;;;;;;5048036;28;20209;-73
2022/01/27 01:29:39;;;;;;;23.38;17.52;;;1.10;99.90;;;;;;5049338;28;20196;-73
2022/01/27 01:32:15;;;;;;;26.15;16.85;;;1.10;99.90;;;;;;5050506;28;20235;-73
2022/01/27 01:34:47;;;;;;;24.40;15.65;;;1.20;99.90;;;;;;5041906;28;20193;-72
2022/01/27 01:37:18;;;;;;;26.35;16.00;;;1.10;99.90;;;;;;5048780;28;20307;-72
2022/01/27 01:39:45;;;;;;;26.92;17.45;;;1.00;99.90;;;;;;5051739;28;20193;-73
2022/01/27 01:42:12;;;;;;;23.85;15.23;;;1.00;99.90;;;;;;5051027;28;20284;-73
2022/01/27 01:44:41;;;;;;;23.10;15.68;;;0.90;99.90;;;;;;5042210;28;20205;-73
2022/01/27 01:47:08;;;;;;;27.40;17.30;;;0.90;99.90;;;;;;5048352;28;20791;-73
2022/01/27 01:49:35;;;;;;;24.63;16.70;;;0.90;99.90;;;;;;5047622;28;20668;-73
2022/01/27 01:52:08;;;;;;;24.90;15.90;;;0.90;99.90;;;;;;5037990;28;20312;-73
2022/01/27 01:54:35;;;;;;;25.90;16.75;;;0.90;99.90;;;;;;5049111;28;20197;-73
2022/01/27 01:57:02;;;;;;;23.10;15.75;;;0.80;99.90;;;;;;5047374;28;20213;-73
2022/01/27 01:59:30;;;;;;;24.42;16.35;;;0.70;99.90;;;;;;5049677;28;20193;-73
2022/01/27 02:01:58;;;;;;;26.83;17.38;;;0.70;99.90;;;;;;5043094;28;20648;-73
2022/01/27 02:04:25;;;;;;;24.40;15.40;;;0.70;99.90;;;;;;5048219;28;20197;-72
2022/01/27 02:06:56;;;;;;;24.92;16.25;;;0.70;99.90;;;;;;5050035;28;20222;-72
2022/01/27 02:09:36;;;;;;;26.33;16.35;;;0.70;99.90;;;;;;5050433;28;20648;-73
2022/01/27 02:20:19;;;;;;;26.50;16.35;;;0.70;99.90;;;;;;5036611;28;20592;-73
2022/01/27 02:22:46;;;;;;;25.35;15.80;;;0.70;99.90;;;;;;5040495;28;20212;-72
2022/01/27 02:25:13;;;;;;;23.58;16.25;;;0.60;99.90;;;;;;5050324;28;20355;-73
2022/01/27 02:27:40;;;;;;;25.02;16.35;;;0.70;99.90;;;;;;5052225;28;20322;-73
2022/01/27 02:30:08;;;;;;;25.65;16.05;;;0.70;99.90;;;;;;5045163;28;20207;-72
2022/01/27 02:32:35;;;;;;;25.70;16.95;;;0.70;99.90;;;;;;5043627;28;20304;-72
2022/01/27 02:35:03;;;;;;;24.08;15.65;;;0.70;99.90;;;;;;5054848;28;20208;-72
2022/01/27 02:37:32;;;;;;;24.70;17.35;;;0.80;99.90;;;;;;5047809;28;20199;-73
2022/01/27 02:39:58;;;;;;;23.75;15.35;;;0.80;99.90;;;;;;5053205;28;20197;-74
2022/01/27 02:42:30;;;;;;;28.75;18.38;;;0.80;99.90;;;;;;5053409;28;20197;-73
2022/01/27 02:45:05;;;;;;;26.75;16.33;;;0.80;99.90;;;;;;5052747;28;20197;-73
2022/01/27 02:47:32;;;;;;;26.02;16.00;;;0.80;99.90;;;;;;5053310;28;20196;-73
2022/01/27 02:49:59;;;;;;;28.50;19.13;;;0.70;99.90;;;;;;5054455;28;20774;-73
2022/01/27 02:52:27;;;;;;;25.83;16.67;;;0.60;99.90;;;;;;5053127;28;20254;-73
2022/01/27 02:54:55;;;;;;;26.50;16.50;;;0.60;99.90;;;;;;5048127;28;20206;-73
2022/01/27 02:57:22;;;;;;;24.77;16.23;;;0.60;99.90;;;;;;5049920;28;20300;-73
2022/01/27 02:59:49;;;;;;;25.20;16.60;;;0.70;99.90;;;;;;5038325;28;20756;-73
2022/01/27 03:02:16;;;;;;;25.30;17.75;;;0.60;99.90;;;;;;5045507;28;20201;-72
2022/01/27 03:04:44;;;;;;;24.00;17.02;;;0.60;99.90;;;;;;5046966;28;20386;-73
2022/01/27 03:07:11;;;;;;;25.67;15.93;;;0.60;99.90;;;;;;5043131;28;20216;-73
2022/01/27 03:09:39;;;;;;;28.80;17.00;;;0.60;99.90;;;;;;5042031;28;21018;-73
2022/01/27 03:12:11;;;;;;;27.48;16.70;;;0.50;99.90;;;;;;5042630;28;20320;-73
2022/01/27 03:14:39;;;;;;;24.40;16.15;;;0.50;99.90;;;;;;5052720;28;20200;-73
2022/01/27 03:17:07;;;;;;;22.92;15.95;;;0.60;99.90;;;;;;5047583;28;20217;-73
2022/01/27 03:19:36;;;;;;;25.50;16.23;;;0.60;99.90;;;;;;5052463;28;20225;-73
2022/01/27 03:22:05;;;;;;;27.02;16.80;;;0.60;99.90;;;;;;5041672;28;20248;-73
2022/01/27 03:24:32;;;;;;;25.35;17.80;;;0.60;99.90;;;;;;5051065;28;20276;-73
2022/01/27 03:26:59;;;;;;;26.38;16.23;;;0.50;99.90;;;;;;5046751;28;20223;-73
2022/01/27 03:29:28;;;;;;;24.98;15.70;;;0.50;99.90;;;;;;5036858;28;20235;-73
2022/01/27 03:31:55;;;;;;;25.95;16.55;;;0.50;99.90;;;;;;5053777;28;20282;-73
2022/01/27 03:34:23;;;;;;;25.35;16.48;;;0.50;99.90;;;;;;5053044;28;20193;-73
2022/01/27 03:36:50;;;;;;;24.77;16.65;;;0.50;99.90;;;;;;5043631;28;20217;-73
2022/01/27 03:39:20;;;;;;;24.90;16.45;;;0.50;99.90;;;;;;5036460;28;20217;-73
2022/01/27 03:41:50;;;;;;;25.63;16.45;;;0.60;99.90;;;;;;5048176;28;20205;-73
2022/01/27 03:44:18;;;;;;;26.55;16.40;;;0.50;99.90;;;;;;5034942;28;20351;-73
2022/01/27 03:46:47;;;;;;;26.48;16.45;;;0.50;99.90;;;;;;5032935;28;20223;-73
2022/01/27 03:49:14;;;;;;;26.08;16.98;;;0.50;99.90;;;;;;5040271;28;20245;-73
2022/01/27 03:51:41;;;;;;;28.33;17.90;;;0.40;99.90;;;;;;5036719;28;20309;-74
2022/01/27 03:54:08;;;;;;;27.48;16.95;;;0.40;99.90;;;;;;5042862;28;20323;-73
2022/01/27 03:56:35;;;;;;;25.40;16.02;;;0.40;99.90;;;;;;5035900;28;20225;-72
2022/01/27 03:59:02;;;;;;;24.27;16.00;;;0.40;99.90;;;;;;5043399;28;20845;-73
2022/01/27 04:01:30;;;;;;;26.90;17.15;;;0.40;99.90;;;;;;5042034;28;20251;-73
2022/01/27 04:04:00;;;;;;;24.92;16.08;;;0.50;99.90;;;;;;5042302;28;20209;-73
2022/01/27 04:06:33;;;;;;;27.33;16.65;;;0.40;99.90;;;;;;5045620;28;20693;-73
2022/01/27 04:09:01;;;;;;;25.27;16.55;;;0.50;99.90;;;;;;5044767;28;20194;-72
2022/01/27 04:11:28;;;;;;;25.42;16.50;;;0.30;99.90;;;;;;5044301;28;20190;-73
2022/01/27 04:13:55;;;;;;;29.23;17.40;;;0.30;99.90;;;;;;5052732;28;20204;-73
2022/01/27 04:16:22;;;;;;;30.02;18.92;;;0.30;99.90;;;;;;5041864;28;20217;-73
2022/01/27 04:18:50;;;;;;;28.40;17.15;;;0.10;99.90;;;;;;5031619;28;20208;-73
2022/01/27 04:21:19;;;;;;;28.17;18.08;;;0.10;99.90;;;;;;5034833;28;20197;-73
2022/01/27 04:23:48;;;;;;;32.15;18.48;;;0.20;99.90;;;;;;5035173;28;20330;-72
2022/01/27 04:26:18;;;;;;;27.98;17.15;;;0.20;99.90;;;;;;5043618;28;20231;-73
2022/01/27 04:28:47;;;;;;;30.50;18.25;;;0.20;99.90;;;;;;5050355;28;20251;-73
2022/01/27 04:31:14;;;;;;;25.70;17.77;;;0.10;99.90;;;;;;5050245;28;20193;-72
2022/01/27 04:33:42;;;;;;;29.77;18.83;;;0.10;99.90;;;;;;5048849;28;20319;-73
2022/01/27 04:36:16;;;;;;;29.27;18.45;;;0.20;99.90;;;;;;5051138;28;20217;-71
2022/01/27 04:38:50;;;;;;;26.63;17.25;;;0.30;99.90;;;;;;5045929;28;20288;-71
2022/01/27 04:41:22;;;;;;;29.50;18.23;;;0.40;99.90;;;;;;5045613;28;20679;-73
2022/01/27 04:43:55;;;;;;;32.60;18.73;;;0.40;99.90;;;;;;5051686;28;20219;-71
2022/01/27 04:46:31;;;;;;;27.50;17.52;;;0.50;99.90;;;;;;5051933;28;20292;-72
2022/01/27 04:49:01;;;;;;;30.48;18.88;;;0.50;99.90;;;;;;5051973;28;20209;-74
2022/01/27 04:51:29;;;;;;;28.02;18.48;;;0.60;99.90;;;;;;5052388;28;20201;-71
2022/01/27 04:54:02;;;;;;;30.67;16.92;;;0.60;99.90;;;;;;5050151;28;20221;-71
2022/01/27 04:56:32;;;;;;;25.92;17.75;;;0.70;99.90;;;;;;5053950;28;20213;-71
2022/01/27 04:59:03;;;;;;;29.40;17.65;;;0.70;99.90;;;;;;5040896;28;20204;-72
2022/01/27 05:01:35;;;;;;;25.65;15.65;;;0.80;99.90;;;;;;5047254;28;20288;-72
2022/01/27 05:04:07;;;;;;;27.60;16.50;;;1.10;99.90;;;;;;5050721;28;20199;-72
2022/01/27 05:06:34;;;;;;;26.00;17.38;;;1.20;99.90;;;;;;5051156;28;20308;-72
2022/01/27 05:09:03;;;;;;;29.85;18.13;;;1.20;99.90;;;;;;5052100;28;20292;-72
2022/01/27 05:11:33;;;;;;;30.20;18.00;;;1.10;99.90;;;;;;5050741;28;20830;-72
2022/01/27 05:14:07;;;;;;;29.50;18.92;;;1.10;99.90;;;;;;5045644;28;20562;-71
2022/01/27 05:16:34;;;;;;;27.10;18.73;;;1.10;99.90;;;;;;5050679;28;20208;-72
2022/01/27 05:19:01;;;;;;;30.48;19.85;;;0.90;99.90;;;;;;5051026;28;20725;-72
2022/01/27 05:21:28;;;;;;;31.60;21.15;;;0.80;99.90;;;;;;5051812;28;20232;-72
2022/01/27 05:23:55;;;;;;;30.65;19.45;;;0.70;99.90;;;;;;5047532;28;20271;-74
2022/01/27 05:26:23;;;;;;;30.63;20.52;;;0.80;99.90;;;;;;5044945;28;20213;-74
2022/01/27 05:28:50;;;;;;;30.35;20.30;;;0.80;99.90;;;;;;5043348;28;20207;-73
2022/01/27 05:31:17;;;;;;;31.85;19.63;;;0.80;99.90;;;;;;5048015;28;20192;-73
2022/01/27 05:33:44;;;;;;;35.25;18.65;;;0.80;99.90;;;;;;5045016;28;20643;-72
2022/01/27 05:36:11;;;;;;;34.13;19.90;;;0.70;99.90;;;;;;5043295;28;20225;-71
2022/01/27 05:38:38;;;;;;;31.38;18.75;;;0.80;99.90;;;;;;5045970;28;20189;-72
2022/01/27 05:41:06;;;;;;;28.85;18.73;;;0.80;99.90;;;;;;5032542;28;20290;-72
2022/01/27 05:43:35;;;;;;;33.05;19.33;;;0.90;99.90;;;;;;5040312;28;20595;-72
2022/01/27 05:46:02;;;;;;;33.55;20.48;;;0.90;99.90;;;;;;5044507;28;20681;-72
2022/01/27 05:48:29;;;;;;;36.58;21.85;;;0.80;99.90;;;;;;5032971;28;20198;-71
2022/01/27 05:50:56;;;;;;;34.28;20.65;;;0.80;99.90;;;;;;5041056;28;20190;-72
2022/01/27 05:53:23;;;;;;;35.70;22.85;;;0.80;99.90;;;;;;5038889;28;20220;-79
2022/01/27 05:55:51;;;;;;;35.40;22.00;;;0.70;99.90;;;;;;5049568;28;20240;-72
2022/01/27 05:58:17;;;;;;;36.20;21.60;;;0.70;99.90;;;;;;5040236;28;20557;-73
2022/01/27 06:00:46;;;;;;;33.72;20.25;;;0.60;99.90;;;;;;5042217;28;20212;-72
2022/01/27 06:03:13;;;;;;;37.97;21.48;;;0.60;99.90;;;;;;5043340;28;20231;-72
2022/01/27 06:05:39;;;;;;;33.30;19.85;;;0.50;99.90;;;;;;5031821;28;20228;-73
2022/01/27 06:08:06;;;;;;;41.60;22.73;;;0.40;99.90;;;;;;5035986;28;20208;-72
2022/01/27 06:10:33;;;;;;;34.15;21.48;;;0.40;99.90;;;;;;5049363;28;20295;-73
2022/01/27 06:13:00;;;;;;;36.88;21.20;;;0.40;99.90;;;;;;5038899;28;20304;-72
2022/01/27 06:15:28;;;;;;;35.15;21.50;;;0.40;99.90;;;;;;5037629;28;20593;-73
2022/01/27 06:17:58;;;;;;;38.65;22.35;;;0.40;99.90;;;;;;5041271;28;20607;-72
2022/01/27 06:20:28;;;;;;;38.58;23.65;;;0.30;99.90;;;;;;5034796;28;20205;-73
2022/01/27 06:22:57;;;;;;;38.05;22.13;;;0.30;99.90;;;;;;5035222;28;20719;-72
2022/01/27 06:25:25;;;;;;;35.95;22.92;;;0.30;99.90;;;;;;5032526;28;20240;-73
2022/01/27 06:27:52;;;;;;;42.65;23.98;;;0.20;99.90;;;;;;5045348;28;20217;-72
2022/01/27 06:30:20;;;;;;;39.47;21.50;;;0.20;99.90;;;;;;5050868;28;20290;-72
2022/01/27 06:32:46;;;;;;;35.22;21.70;;;0.20;99.90;;;;;;5040626;28;20229;-72
2022/01/27 06:35:15;;;;;;;36.03;21.52;;;0.10;99.90;;;;;;5040594;28;20303;-72
2022/01/27 06:37:44;;;;;;;35.95;21.75;;;0.10;99.90;;;;;;5044038;28;20205;-73
2022/01/27 06:40:14;;;;;;;36.72;20.95;;;0.00;99.90;;;;;;5042192;28;20223;-73
2022/01/27 06:42:41;;;;;;;34.47;19.92;;;-0.10;99.90;;;;;;5045643;28;20335;-73
2022/01/27 06:45:10;;;;;;;34.03;21.08;;;-0.10;99.90;;;;;;5042253;28;20221;-72
2022/01/27 06:47:37;;;;;;;34.85;20.85;;;-0.20;99.90;;;;;;5041869;28;20710;-72
2022/01/27 06:50:05;;;;;;;29.13;19.70;;;-0.20;99.90;;;;;;5041945;28;20209;-71
2022/01/27 06:52:34;;;;;;;32.60;20.30;;;-0.20;99.90;;;;;;5040502;28;20228;-71
2022/01/27 06:55:02;;;;;;;32.03;19.20;;;-0.30;99.90;;;;;;5034999;28;20307;-71
2022/01/27 06:57:30;;;;;;;33.72;19.95;;;-0.30;99.90;;;;;;5044389;28;20749;-73
2022/01/27 06:59:57;;;;;;;31.63;18.10;;;-0.20;99.90;;;;;;5052884;28;20292;-71
2022/01/27 07:02:24;;;;;;;30.67;18.42;;;-0.30;99.90;;;;;;5047666;28;20192;-71
2022/01/27 07:04:51;;;;;;;30.15;18.67;;;-0.30;99.90;;;;;;5042371;28;20215;-71
2022/01/27 07:07:18;;;;;;;28.95;18.45;;;-0.30;99.90;;;;;;5044789;28;20328;-71
2022/01/27 07:09:46;;;;;;;29.52;19.10;;;-0.40;99.90;;;;;;5050272;28;20250;-71
2022/01/27 07:12:13;;;;;;;28.10;17.85;;;-0.40;99.90;;;;;;5036671;28;20201;-71
2022/01/27 07:14:40;;;;;;;29.02;19.35;;;-0.40;99.90;;;;;;5034921;28;20234;-72
2022/01/27 07:17:07;;;;;;;31.75;19.38;;;-0.40;99.90;;;;;;5042177;28;20200;-72
2022/01/27 07:19:34;;;;;;;35.10;20.75;;;-0.50;99.90;;;;;;5035605;28;20300;-72
2022/01/27 07:22:01;;;;;;;34.45;20.13;;;-0.50;99.90;;;;;;5038388;28;20200;-73
2022/01/27 07:24:28;;;;;;;33.90;20.75;;;-0.50;99.90;;;;;;5039008;28;20203;-72
2022/01/27 07:26:56;;;;;;;34.13;20.45;;;-0.50;99.90;;;;;;5041306;28;20247;-72
2022/01/27 07:29:23;;;;;;;35.45;21.42;;;-0.50;99.90;;;;;;5045557;28;20201;-72
2022/01/27 07:31:50;;;;;;;38.20;22.15;;;-0.50;99.90;;;;;;5052754;28;20909;-72
2022/01/27 07:34:17;;;;;;;40.97;22.67;;;-0.50;99.90;;;;;;5048757;28;20225;-73
2022/01/27 07:36:44;;;;;;;37.10;22.15;;;-0.50;99.90;;;;;;5052883;28;20196;-72
2022/01/27 07:39:14;;;;;;;32.50;19.88;;;-0.50;99.90;;;;;;5047366;28;20193;-73
2022/01/27 07:41:42;;;;;;;34.58;20.02;;;-0.50;99.90;;;;;;5042809;28;20283;-73
2022/01/27 07:44:10;;;;;;;36.75;21.73;;;-0.60;99.90;;;;;;5038139;28;20193;-72
2022/01/27 07:46:37;;;;;;;38.17;22.00;;;-0.50;99.90;;;;;;5036789;28;20217;-73
2022/01/27 07:49:04;;;;;;;37.63;22.05;;;-0.50;99.90;;;;;;5049043;28;20209;-72
2022/01/27 07:51:31;;;;;;;42.42;23.40;;;-0.50;99.90;;;;;;5048559;28;20193;-73
2022/01/27 07:53:58;;;;;;;43.95;23.75;;;-0.50;99.90;;;;;;5043643;28;20229;-73
2022/01/27 07:56:26;;;;;;;42.85;22.65;;;-0.50;99.90;;;;;;5037747;28;20221;-72
2022/01/27 07:58:54;;;;;;;44.28;23.80;;;-0.60;99.90;;;;;;5039810;28;20628;-72
2022/01/27 08:01:22;;;;;;;50.33;26.67;;;-0.70;99.90;;;;;;5037156;28;20220;-72
2022/01/27 08:03:49;;;;;;;45.95;23.88;;;-0.80;99.90;;;;;;5049972;28;20567;-73
2022/01/27 08:06:17;;;;;;;40.38;23.45;;;-0.70;99.90;;;;;;5039472;28;20929;-72
2022/01/27 08:08:43;;;;;;;45.78;24.73;;;-0.70;99.90;;;;;;5035981;28;20244;-72
2022/01/27 08:11:10;;;;;;;46.80;25.73;;;-0.70;99.90;;;;;;5043865;28;20254;-72
2022/01/27 08:13:37;;;;;;;44.47;24.90;;;-0.80;99.90;;;;;;5042729;28;20225;-72
2022/01/27 08:16:05;;;;;;;44.40;24.92;;;-0.80;99.90;;;;;;5038664;28;20241;-71
2022/01/27 08:18:33;;;;;;;45.40;23.95;;;-0.70;99.90;;;;;;5036970;28;20304;-73
2022/01/27 08:21:00;;;;;;;49.15;24.58;;;-0.70;99.90;;;;;;5056446;28;20626;-72
2022/01/27 08:23:28;;;;;;;46.47;24.05;;;-0.80;99.90;;;;;;5050249;28;20208;-72
2022/01/27 08:26:03;;;;;;;53.50;27.58;;;-0.80;99.90;;;;;;5037314;28;20263;-72
2022/01/27 08:28:34;;;;;;;52.90;26.88;;;-0.90;99.90;;;;;;5042884;28;20219;-73
2022/01/27 08:31:03;;;;;;;50.72;26.00;;;-0.90;99.90;;;;;;5041298;28;20606;-72
2022/01/27 08:33:30;;;;;;;48.53;25.33;;;-0.90;99.90;;;;;;5040531;28;20257;-72
2022/01/27 08:36:00;;;;;;;52.50;24.83;;;-0.90;99.90;;;;;;5051576;28;20273;-72
2022/01/27 08:38:27;;;;;;;52.72;26.88;;;-0.90;99.90;;;;;;5038041;28;20330;-72
2022/01/27 08:40:55;;;;;;;49.38;26.45;;;-1.00;99.90;;;;;;5042150;28;20203;-72
2022/01/27 08:43:22;;;;;;;51.38;25.25;;;-1.00;99.90;;;;;;5040705;28;20204;-72
2022/01/27 08:45:50;;;;;;;47.70;26.15;;;-1.00;99.90;;;;;;5041685;28;20292;-71
2022/01/27 08:48:20;;;;;;;48.60;24.95;;;-0.90;99.90;;;;;;5041344;28;20211;-72
2022/01/27 08:50:53;;;;;;;45.58;23.10;;;-1.00;99.90;;;;;;5035821;28;20222;-72
2022/01/27 08:53:22;;;;;;;46.88;23.13;;;-0.90;99.90;;;;;;5046404;28;20258;-71
2022/01/27 08:55:49;;;;;;;45.53;23.38;;;-0.90;99.90;;;;;;5039978;28;20242;-72
2022/01/27 08:58:16;;;;;;;41.33;22.08;;;-0.90;99.90;;;;;;5042556;28;20218;-72
2022/01/27 09:00:43;;;;;;;43.53;21.15;;;-1.00;99.90;;;;;;5036207;28;20214;-73
2022/01/27 09:03:10;;;;;;;38.33;21.50;;;-1.10;99.90;;;;;;5048784;28;20201;-72
2022/01/27 09:05:37;;;;;;;37.63;21.88;;;-1.10;99.90;;;;;;5040384;28;20221;-73
2022/01/27 09:08:05;;;;;;;35.53;19.40;;;-1.10;99.90;;;;;;5033002;28;20205;-72
2022/01/27 09:10:34;;;;;;;36.10;20.52;;;-1.10;99.90;;;;;;5037823;28;20204;-73
2022/01/27 09:13:02;;;;;;;30.73;18.88;;;-1.00;99.90;;;;;;5033655;28;20724;-72
2022/01/27 09:15:30;;;;;;;34.75;18.70;;;-0.90;99.90;;;;;;5041700;28;20212;-73
2022/01/27 09:17:58;;;;;;;31.40;18.52;;;-0.80;99.90;;;;;;5040491;28;20290;-72
2022/01/27 09:20:26;;;;;;;35.13;18.63;;;-0.70;99.90;;;;;;5045021;28;20196;-74
2022/01/27 09:22:56;;;;;;;35.20;19.23;;;-0.60;99.90;;;;;;5038432;28;20198;-72
2022/01/27 09:25:29;;;;;;;27.95;17.02;;;-0.60;99.90;;;;;;5034243;28;20268;-72
2022/01/27 09:28:01;;;;;;;31.08;16.83;;;-0.40;99.90;;;;;;5048609;28;20228;-72
2022/01/27 09:30:30;;;;;;;27.83;16.67;;;-0.40;99.90;;;;;;5040876;28;20189;-73
2022/01/27 09:32:58;;;;;;;28.65;16.63;;;-0.40;99.90;;;;;;5049679;28;20208;-73
2022/01/27 09:35:27;;;;;;;29.70;16.25;;;-0.40;99.90;;;;;;5045814;28;20583;-72
2022/01/27 09:37:55;;;;;;;27.13;17.40;;;-0.30;99.90;;;;;;5041275;28;20208;-72
2022/01/27 09:40:22;;;;;;;27.08;15.40;;;-0.20;99.90;;;;;;5039524;28;20280;-73
2022/01/27 09:42:52;;;;;;;27.15;15.18;;;-0.20;99.90;;;;;;5047071;28;20201;-74
2022/01/27 09:45:21;;;;;;;24.15;14.57;;;0.00;99.90;;;;;;5043690;28;20307;-73
2022/01/27 09:47:54;;;;;;;28.42;15.18;;;0.00;99.90;;;;;;5046243;28;20243;-72
2022/01/27 09:50:34;;;;;;;22.55;14.02;;;0.10;99.90;;;;;;5039470;28;20213;-73
2022/01/27 09:53:01;;;;;;;22.13;13.23;;;0.20;99.90;;;;;;5040119;28;20216;-72
2022/01/27 09:55:28;;;;;;;22.88;13.15;;;0.30;99.90;;;;;;5039301;28;20311;-72
2022/01/27 09:57:58;;;;;;;24.92;13.52;;;0.30;99.90;;;;;;5039480;28;20224;-72
2022/01/27 10:00:26;;;;;;;25.13;13.45;;;0.40;99.90;;;;;;5036788;28;20198;-72
2022/01/27 10:03:09;;;;;;;22.63;13.77;;;0.50;99.90;;;;;;5038909;28;20197;-73
2022/01/27 10:05:37;;;;;;;28.20;14.90;;;0.60;99.90;;;;;;5047241;28;20221;-73
2022/01/27 10:08:08;;;;;;;21.52;12.90;;;0.70;99.90;;;;;;5030621;28;20194;-72
2022/01/27 10:10:41;;;;;;;24.77;14.02;;;0.80;99.90;;;;;;5032075;28;20259;-72
2022/01/27 10:13:10;;;;;;;19.92;12.27;;;0.90;99.90;;;;;;5039852;28;20198;-72
2022/01/27 10:15:42;;;;;;;18.30;12.23;;;0.90;99.90;;;;;;5039786;28;20229;-73
2022/01/27 10:18:12;;;;;;;24.58;13.25;;;1.00;99.90;;;;;;5046132;28;20556;-72
2022/01/27 10:20:41;;;;;;;18.20;12.27;;;1.00;99.90;;;;;;5042439;28;20200;-72
2022/01/27 10:23:13;;;;;;;20.17;12.75;;;1.10;99.90;;;;;;5047374;28;20560;-72
2022/01/27 10:25:46;;;;;;;17.85;12.15;;;1.20;99.90;;;;;;5031441;28;20225;-72
2022/01/27 10:28:42;;;;;;;16.70;12.32;;;1.10;99.90;;;;;;5052358;28;20203;-72
2022/01/27 10:31:13;;;;;;;16.30;11.90;;;1.10;99.90;;;;;;5039367;28;20205;-73
2022/01/27 10:33:44;;;;;;;21.58;12.77;;;1.20;99.90;;;;;;5037746;28;20202;-73
2022/01/27 10:36:16;;;;;;;17.90;12.05;;;1.30;99.90;;;;;;5048673;28;20205;-73
2022/01/27 10:38:43;;;;;;;15.23;10.90;;;1.40;99.90;;;;;;5044814;28;20198;-72
2022/01/27 10:41:10;;;;;;;15.55;10.95;;;1.40;99.90;;;;;;5040381;28;20201;-72
2022/01/27 10:43:39;;;;;;;18.20;11.63;;;1.40;99.90;;;;;;5047497;28;20201;-72
2022/01/27 10:46:12;;;;;;;15.10;10.02;;;1.50;99.90;;;;;;5045457;28;20190;-72
2022/01/27 10:48:49;;;;;;;15.60;10.80;;;1.50;99.90;;;;;;5051542;28;20200;-73
2022/01/27 10:51:21;;;;;;;18.63;12.02;;;1.50;99.90;;;;;;5054124;28;20197;-72
2022/01/27 10:53:55;;;;;;;16.08;10.55;;;1.50;99.90;;;;;;5049304;28;20284;-72
2022/01/27 10:56:24;;;;;;;16.77;10.73;;;1.60;99.90;;;;;;5049912;28;20208;-72
2022/01/27 10:58:52;;;;;;;17.25;10.50;;;1.60;99.90;;;;;;5042440;28;20202;-72
2022/01/27 11:01:28;;;;;;;17.23;10.75;;;1.60;99.90;;;;;;5035185;28;20205;-72
2022/01/27 11:04:00;;;;;;;15.18;10.88;;;1.70;99.90;;;;;;5038829;28;20217;-72
2022/01/27 11:06:30;;;;;;;15.48;10.85;;;1.70;99.90;;;;;;5037651;28;20220;-72
2022/01/27 11:09:00;;;;;;;16.88;11.13;;;1.70;99.90;;;;;;5042391;28;20193;-72
2022/01/27 11:11:27;;;;;;;13.75;10.60;;;1.80;99.90;;;;;;5039693;28;20201;-72
2022/01/27 11:13:58;;;;;;;12.35;9.20;;;1.80;99.90;;;;;;5037620;28;20217;-72
2022/01/27 11:16:32;;;;;;;12.30;9.30;;;1.80;99.90;;;;;;5045640;28;20204;-72
2022/01/27 11:19:14;;;;;;;14.13;9.30;;;1.90;99.90;;;;;;5049426;28;20186;-77
2022/01/27 11:21:44;;;;;;;11.90;10.40;;;1.80;99.90;;;;;;5047089;28;20223;-72
2022/01/27 11:24:22;;;;;;;14.65;10.50;;;1.80;99.90;;;;;;5051774;28;20259;-72
2022/01/27 11:26:54;;;;;;;13.73;9.20;;;1.90;99.90;;;;;;5033888;28;20236;-72
2022/01/27 11:29:22;;;;;;;13.75;10.50;;;1.90;99.90;;;;;;5034056;28;20205;-72
2022/01/27 11:32:13;;;;;;;13.95;10.10;;;1.90;99.90;;;;;;5033927;28;20629;-72
2022/01/27 11:34:53;;;;;;;13.50;10.35;;;1.90;99.90;;;;;;5056638;28;20263;-72
2022/01/27 11:37:31;;;;;;;14.05;10.38;;;2.00;99.90;;;;;;5044742;28;20198;-72
2022/01/27 11:40:04;;;;;;;12.50;9.50;;;2.00;99.90;;;;;;5034201;28;20217;-72
2022/01/27 11:42:42;;;;;;;14.13;10.35;;;2.10;99.90;;;;;;5064470;28;20200;-72
2022/01/27 11:45:29;;;;;;;15.05;9.85;;;2.20;99.90;;;;;;5063670;28;20300;-72
2022/01/27 11:47:59;;;;;;;15.68;10.80;;;2.30;99.90;;;;;;5034153;28;20229;-72
2022/01/27 11:50:34;;;;;;;14.23;10.18;;;2.30;99.90;;;;;;5046238;28;20205;-72
2022/01/27 11:53:03;;;;;;;15.48;11.85;;;2.40;99.90;;;;;;5033543;28;20296;-72
2022/01/27 11:55:44;;;;;;;14.40;11.02;;;2.40;99.90;;;;;;5056877;28;20316;-72
2022/01/27 11:58:22;;;;;;;15.30;10.60;;;2.40;99.90;;;;;;5044519;28;20194;-73
2022/01/27 12:01:25;;;;;;;15.32;10.70;;;2.40;99.90;;;;;;5044257;28;20205;-73
2022/01/27 12:04:16;;;;;;;15.32;11.90;;;2.40;99.90;;;;;;5035471;28;20213;-72
2022/01/27 12:07:07;;;;;;;15.43;11.23;;;2.40;99.90;;;;;;5023491;28;20203;-73
2022/01/27 12:09:38;;;;;;;12.73;10.45;;;2.50;99.90;;;;;;5045335;28;20190;-73
2022/01/27 12:12:12;;;;;;;16.58;10.73;;;2.60;99.90;;;;;;5043718;28;20193;-73
2022/01/27 12:15:04;;;;;;;15.43;11.25;;;2.60;99.90;;;;;;5050178;28;20584;-73
2022/01/27 12:17:34;;;;;;;13.70;10.68;;;2.70;99.90;;;;;;5045153;28;20202;-71
2022/01/27 12:20:05;;;;;;;12.90;10.15;;;2.70;99.90;;;;;;5042105;28;20197;-73
2022/01/27 12:23:08;;;;;;;14.25;10.40;;;2.70;99.90;;;;;;5049548;28;20719;-74
2022/01/27 12:25:51;;;;;;;13.60;10.43;;;2.70;99.90;;;;;;5046575;28;20200;-74
2022/01/27 12:28:19;;;;;;;14.02;9.95;;;2.80;99.90;;;;;;5050766;28;20200;-73
2022/01/27 12:30:56;;;;;;;16.00;10.85;;;2.90;99.90;;;;;;5043057;28;20208;-73
2022/01/27 12:33:23;;;;;;;14.32;10.38;;;3.00;99.90;;;;;;5047216;28;20218;-73
2022/01/27 12:35:53;;;;;;;14.43;10.30;;;3.10;99.90;;;;;;5037885;28;20232;-73
2022/01/27 12:38:22;;;;;;;16.58;10.55;;;3.10;99.90;;;;;;5038907;28;20193;-73
2022/01/27 12:40:55;;;;;;;14.45;10.45;;;3.10;99.90;;;;;;5041882;28;20214;-73
2022/01/27 12:43:23;;;;;;;15.52;10.55;;;3.20;99.90;;;;;;5045551;28;20685;-74
2022/01/27 12:45:50;;;;;;;13.13;9.80;;;3.20;99.90;;;;;;5040231;28;20200;-74
2022/01/27 12:48:23;;;;;;;15.13;10.55;;;3.20;99.90;;;;;;5043890;28;20191;-74
2022/01/27 12:50:57;;;;;;;14.02;10.65;;;3.20;99.90;;;;;;5039894;28;20197;-73
2022/01/27 12:53:27;;;;;;;12.23;10.63;;;3.20;99.90;;;;;;5042603;28;20694;-73
2022/01/27 12:55:54;;;;;;;14.52;10.93;;;3.10;99.90;;;;;;5036673;28;20756;-72
2022/01/27 12:58:21;;;;;;;12.60;9.55;;;3.10;99.90;;;;;;5039650;28;20649;-72
2022/01/27 13:00:49;;;;;;;12.73;9.85;;;3.10;99.90;;;;;;5043824;28;20297;-72
2022/01/27 13:03:17;;;;;;;12.98;10.10;;;3.10;99.90;;;;;;5049311;28;20286;-73
2022/01/27 13:05:47;;;;;;;15.07;12.32;;;3.10;99.90;;;;;;5040676;28;20199;-71
2022/01/27 13:08:16;;;;;;;13.38;10.57;;;3.20;99.90;;;;;;5047256;28;20243;-72
2022/01/27 13:10:49;;;;;;;14.05;10.55;;;3.20;99.90;;;;;;5045983;28;20212;-72